createdAt,value
2019-02-07T00:00:28.362Z,27.9
2019-02-07T00:01:22.485Z,27.8
2019-02-07T00:02:09.848Z,27.6
2019-02-07T00:03:00.536Z,27.5
2019-02-07T00:03:49.571Z,27.4
2019-02-07T00:04:40.518Z,27.3
2019-02-07T00:05:30.167Z,27.1
2019-02-07T00:06:19.565Z,27.1
2019-02-07T00:07:11.817Z,26.9
2019-02-07T00:08:01.210Z,27
2019-02-07T00:08:49.863Z,27
2019-02-07T00:09:40.345Z,26.9
2019-02-07T00:10:31.740Z,27.1
2019-02-07T00:11:20.762Z,27.3
2019-02-07T00:12:10.981Z,27.5
2019-02-07T00:13:00.530Z,27.8
2019-02-07T00:13:50.367Z,27.9
2019-02-07T00:14:49.652Z,28.1
2019-02-07T00:15:29.665Z,28.2
2019-02-07T00:16:23.139Z,28.3
2019-02-07T00:17:10.893Z,28.4
2019-02-07T00:17:59.869Z,28.5
2019-02-07T00:18:50.256Z,28.6
2019-02-07T00:19:43.439Z,28.6
2019-02-07T00:20:29.559Z,28.7
2019-02-07T00:21:21.771Z,28.8
2019-02-07T00:22:10.431Z,28.7
2019-02-07T00:23:02.146Z,28.6
2019-02-07T00:23:51.649Z,28.6
2019-02-07T00:24:52.886Z,28.5
2019-02-07T00:25:33.934Z,28.4
2019-02-07T00:26:20.746Z,28.3
2019-02-07T00:27:11.943Z,28.1
2019-02-07T00:28:01.736Z,27.9
2019-02-07T00:28:54.203Z,27.8
2019-02-07T00:29:42.587Z,27.6
2019-02-07T00:30:31.081Z,27.5
2019-02-07T00:31:22.085Z,27.4
2019-02-07T00:32:12.210Z,27.2
2019-02-07T00:33:00.093Z,27.3
2019-02-07T00:33:52.375Z,27.1
2019-02-07T00:34:44.869Z,27
2019-02-07T00:35:31.358Z,27
2019-02-07T00:36:21.989Z,27
2019-02-07T00:37:12.295Z,27.1
2019-02-07T00:38:03.830Z,27.2
2019-02-07T00:38:51.828Z,27.4
2019-02-07T00:39:42.468Z,27.6
2019-02-07T00:41:23.213Z,27.9
2019-02-07T00:42:12.438Z,28.1
2019-02-07T00:43:03.266Z,28.2
2019-02-07T00:43:55.004Z,28.3
2019-02-07T00:44:57.529Z,28.4
2019-02-07T00:45:32.852Z,28.6
2019-02-07T00:46:21.934Z,28.6
2019-02-07T00:47:15.452Z,28.7
2019-02-07T00:48:02.847Z,28.8
2019-02-07T00:48:53.487Z,28.8
2019-02-07T00:49:43.144Z,28.8
2019-02-07T00:50:37.206Z,28.7
2019-02-07T00:51:24.219Z,28.6
2019-02-07T00:52:13.742Z,28.5
2019-02-07T00:53:05.834Z,28.4
2019-02-07T00:53:54.108Z,28.3
2019-02-07T00:54:43.622Z,28.2
2019-02-07T00:55:33.319Z,27.9
2019-02-07T00:56:26.476Z,27.8
2019-02-07T00:57:14.402Z,27.6
2019-02-07T00:58:04.141Z,27.5
2019-02-07T00:58:53.084Z,27.4
2019-02-07T00:59:44.139Z,27.2
2019-02-07T01:00:34.092Z,27.2
2019-02-07T01:01:24.941Z,27.1
2019-02-07T01:02:15.541Z,27.1
2019-02-07T01:03:04.696Z,27.1
2019-02-07T01:03:53.873Z,27.1
2019-02-07T01:04:44.348Z,27.1
2019-02-07T01:05:37.089Z,27.3
2019-02-07T01:06:24.038Z,27.4
2019-02-07T01:07:14.241Z,27.6
2019-02-07T01:09:43.530Z,27.7
2019-02-07T01:10:34.335Z,27.6
2019-02-07T01:11:25.063Z,27.3
2019-02-07T01:12:13.673Z,27.1
2019-02-07T01:13:05.371Z,27.1
2019-02-07T01:13:54.226Z,27
2019-02-07T01:14:48.225Z,27.3
2019-02-07T01:15:34.538Z,27.4
2019-02-07T01:16:24.872Z,27.3
2019-02-07T01:17:14.461Z,27.1
2019-02-07T01:18:05.180Z,26.9
2019-02-07T01:18:55.552Z,26.8
2019-02-07T01:19:45.215Z,26.8
2019-02-07T01:20:36.782Z,27.1
2019-02-07T01:21:24.234Z,27.3
2019-02-07T01:22:15.542Z,27.5
2019-02-07T01:23:05.682Z,27.7
2019-02-07T01:23:57.682Z,27.9
2019-02-07T01:24:44.862Z,28.1
2019-02-07T01:25:35.127Z,28.2
2019-02-07T01:26:26.099Z,28.3
2019-02-07T01:27:15.869Z,28.4
2019-02-07T01:28:05.647Z,28.5
2019-02-07T01:28:55.147Z,28.6
2019-02-07T01:29:48.529Z,28.7
2019-02-07T01:30:36.124Z,28.7
2019-02-07T01:31:25.041Z,28.8
2019-02-07T01:32:15.996Z,28.8
2019-02-07T01:33:07.082Z,28.7
2019-02-07T01:33:56.344Z,28.6
2019-02-07T01:34:45.043Z,28.5
2019-02-07T01:35:36.031Z,28.4
2019-02-07T01:36:25.761Z,28.3
2019-02-07T01:37:15.457Z,28.2
2019-02-07T01:38:06.411Z,27.9
2019-02-07T01:38:59.063Z,27.7
2019-02-07T01:39:47.056Z,27.6
2019-02-07T01:40:35.220Z,27.4
2019-02-07T01:41:26.311Z,27.3
2019-02-07T01:42:15.898Z,27.1
2019-02-07T01:43:06.380Z,27.1
2019-02-07T01:43:56.013Z,27
2019-02-07T01:44:48.646Z,27
2019-02-07T01:45:36.851Z,27
2019-02-07T01:46:27.698Z,27
2019-02-07T01:47:17.058Z,27.1
2019-02-07T01:48:10.470Z,27.3
2019-02-07T01:48:56.045Z,27.6
2019-02-07T01:49:46.840Z,27.8
2019-02-07T01:50:36.898Z,27.9
2019-02-07T01:51:26.178Z,28.1
2019-02-07T01:52:18.265Z,28.2
2019-02-07T01:53:07.108Z,28.3
2019-02-07T01:53:59.373Z,28.4
2019-02-07T01:54:47.720Z,28.5
2019-02-07T01:55:38.086Z,28.6
2019-02-07T01:56:28.333Z,28.7
2019-02-07T01:57:20.905Z,28.8
2019-02-07T01:58:07.855Z,28.8
2019-02-07T01:58:58.112Z,28.8
2019-02-07T01:59:46.868Z,28.8
2019-02-07T02:00:38.481Z,28.7
2019-02-07T02:01:27.640Z,28.6
2019-02-07T02:02:18.244Z,28.5
2019-02-07T02:03:10.311Z,28.4
2019-02-07T02:03:58.414Z,28.3
2019-02-07T02:04:48.460Z,28.1
2019-02-07T02:05:39.363Z,27.9
2019-02-07T02:06:30.935Z,27.7
2019-02-07T02:07:18.362Z,27.6
2019-02-07T02:08:08.234Z,27.4
2019-02-07T02:08:59.127Z,27.3
2019-02-07T02:09:48.554Z,27.2
2019-02-07T02:10:37.814Z,27.1
2019-02-07T02:11:27.330Z,27.1
2019-02-07T02:12:20.499Z,27.1
2019-02-07T02:13:09.407Z,27.1
2019-02-07T02:13:58.791Z,27.1
2019-02-07T02:14:47.909Z,27.2
2019-02-07T02:15:41.754Z,27.4
2019-02-07T02:16:31.676Z,27.6
2019-02-07T02:18:09.671Z,28
2019-02-07T02:18:58.896Z,28.1
2019-02-07T02:19:49.262Z,28.2
2019-02-07T02:20:39.049Z,28.4
2019-02-07T02:21:32.146Z,28.4
2019-02-07T02:22:19.908Z,28.6
2019-02-07T02:23:09.233Z,28.6
2019-02-07T02:23:59.558Z,28.7
2019-02-07T02:24:55.321Z,28.8
2019-02-07T02:25:40.658Z,28.8
2019-02-07T02:26:29.985Z,28.8
2019-02-07T02:27:20.876Z,28.8
2019-02-07T02:28:10.666Z,28.7
2019-02-07T02:29:01.005Z,28.6
2019-02-07T02:29:51.003Z,28.5
2019-02-07T02:30:43.549Z,28.4
2019-02-07T02:31:29.143Z,28.3
2019-02-07T02:32:20.240Z,28
2019-02-07T02:34:02.563Z,27.6
2019-02-07T02:34:50.587Z,27.6
2019-02-07T02:35:40.580Z,27.5
2019-02-07T02:36:30.155Z,27.2
2019-02-07T02:37:20.452Z,27.3
2019-02-07T02:38:08.944Z,27.1
2019-02-07T02:39:00.353Z,27.1
2019-02-07T02:39:52.306Z,27.1
2019-02-07T02:40:40.535Z,27.1
2019-02-07T02:41:31.120Z,27.1
2019-02-07T02:42:20.582Z,27.3
2019-02-07T02:43:10.472Z,27.5
2019-02-07T02:44:00.929Z,27.8
2019-02-07T02:44:51.570Z,27.9
2019-02-07T02:45:48.342Z,28.1
2019-02-07T02:46:30.653Z,28.2
2019-02-07T02:47:20.645Z,28.3
2019-02-07T02:48:11.546Z,28.4
2019-02-07T02:49:03.283Z,28.5
2019-02-07T02:49:51.872Z,28.6
2019-02-07T02:50:41.305Z,28.7
2019-02-07T02:51:31.467Z,28.8
2019-02-07T02:52:21.382Z,28.8
2019-02-07T02:53:11.133Z,28.9
2019-02-07T02:54:02.210Z,28.9
2019-02-07T02:54:54.523Z,28.8
2019-02-07T02:55:42.434Z,28.7
2019-02-07T02:56:31.847Z,28.6
2019-02-07T02:57:22.259Z,28.6
2019-02-07T02:58:15.569Z,28.4
2019-02-07T02:59:00.723Z,28.4
2019-02-07T02:59:51.853Z,28.2
2019-02-07T03:00:41.671Z,27.9
2019-02-07T03:01:32.451Z,27.7
2019-02-07T03:02:21.126Z,27.6
2019-02-07T03:03:12.236Z,27.4
2019-02-07T03:04:03.383Z,27.2
2019-02-07T03:04:53.154Z,27.3
2019-02-07T03:08:24.993Z,27.1
2019-02-07T03:09:14.741Z,27.1
2019-02-07T03:10:04.526Z,27.3
2019-02-07T03:10:55.538Z,27.5
2019-02-07T03:11:44.540Z,27.8
2019-02-07T03:12:34.283Z,27.9
2019-02-07T03:13:24.175Z,28.1
2019-02-07T03:14:17.615Z,28.2
2019-02-07T03:15:05.530Z,28.3
2019-02-07T03:15:59.789Z,28.3
2019-02-07T03:16:45.158Z,28.1
2019-02-07T03:17:35.303Z,27.9
2019-02-07T03:18:24.947Z,27.6
2019-02-07T03:19:14.845Z,27.5
2019-02-07T03:20:07.983Z,27.5
2019-02-07T03:20:55.090Z,27.8
2019-02-07T03:22:34.935Z,27.6
2019-02-07T03:23:28.523Z,27.4
2019-02-07T03:24:16.518Z,27.3
2019-02-07T03:25:05.734Z,27.1
2019-02-07T03:25:55.583Z,27.1
2019-02-07T03:26:46.369Z,27.4
2019-02-07T03:27:35.577Z,27.6
2019-02-07T03:28:26.557Z,27.8
2019-02-07T03:29:17.944Z,27.9
2019-02-07T03:30:06.855Z,28.1
2019-02-07T03:30:56.660Z,28.3
2019-02-07T03:31:46.465Z,28.3
2019-02-07T03:32:39.710Z,28.5
2019-02-07T03:33:26.108Z,28.6
2019-02-07T03:34:15.140Z,28.7
2019-02-07T03:35:06.430Z,28.7
2019-02-07T03:35:56.717Z,28.8
2019-02-07T03:36:45.608Z,28.8
2019-02-07T03:37:37.299Z,28.8
2019-02-07T03:38:29.410Z,28.8
2019-02-07T03:39:17.005Z,28.6
2019-02-07T03:40:06.523Z,28.6
2019-02-07T03:40:56.727Z,28.5
2019-02-07T03:41:48.316Z,28.4
2019-02-07T03:42:36.066Z,28.1
2019-02-07T03:43:27.495Z,27.9
2019-02-07T03:44:17.565Z,27.8
2019-02-07T03:45:06.281Z,27.6
2019-02-07T03:46:11.170Z,27.6
2019-02-07T03:46:46.157Z,27.3
2019-02-07T03:47:40.313Z,27.3
2019-02-07T03:48:27.075Z,27.2
2019-02-07T03:49:16.855Z,27.1
2019-02-07T03:50:06.469Z,27.1
2019-02-07T03:51:00.114Z,27.1
2019-02-07T03:51:47.740Z,27.2
2019-02-07T03:52:36.240Z,27.3
2019-02-07T03:53:27.988Z,27.5
2019-02-07T03:54:17.458Z,27.8
2019-02-07T03:55:07.562Z,27.9
2019-02-07T03:55:57.505Z,28
2019-02-07T03:56:50.151Z,28.2
2019-02-07T03:57:36.885Z,28.3
2019-02-07T03:58:28.767Z,28.4
2019-02-07T03:59:17.999Z,28.5
2019-02-07T04:00:11.130Z,28.6
2019-02-07T04:00:57.335Z,28.7
2019-02-07T04:01:49.079Z,28.8
2019-02-07T04:02:42.122Z,28.8
2019-02-07T04:03:29.147Z,28.9
2019-02-07T04:04:18.693Z,28.9
2019-02-07T04:05:08.840Z,28.8
2019-02-07T04:06:01.400Z,28.7
2019-02-07T04:06:48.000Z,28.6
2019-02-07T04:07:38.970Z,28.6
2019-02-07T04:08:28.429Z,28.4
2019-02-07T04:09:20.797Z,28.3
2019-02-07T04:10:08.516Z,28
2019-02-07T04:11:49.362Z,27.7
2019-02-07T04:12:39.451Z,27.6
2019-02-07T04:13:28.588Z,27.4
2019-02-07T04:14:19.162Z,27.3
2019-02-07T04:15:11.560Z,27.3
2019-02-07T04:15:59.412Z,27.1
2019-02-07T04:16:49.659Z,27.1
2019-02-07T04:17:39.085Z,27.1
2019-02-07T04:18:31.636Z,27.1
2019-02-07T04:19:20.256Z,27.3
2019-02-07T04:20:10.746Z,27.4
2019-02-07T04:21:00.421Z,27.6
2019-02-07T04:22:39.424Z,28
2019-02-07T04:23:29.984Z,28.1
2019-02-07T04:24:25.688Z,28.3
2019-02-07T04:25:27.581Z,28.4
2019-02-07T04:25:59.708Z,28.5
2019-02-07T04:26:49.941Z,28.6
2019-02-07T04:27:41.918Z,28.6
2019-02-07T04:28:29.751Z,28.8
2019-02-07T04:29:21.030Z,28.8
2019-02-07T04:30:11.371Z,28.8
2019-02-07T04:31:01.254Z,28.8
2019-02-07T04:31:50.408Z,28.8
2019-02-07T04:32:40.498Z,28.7
2019-02-07T04:33:33.281Z,28.6
2019-02-07T04:34:20.006Z,28.5
2019-02-07T04:35:10.998Z,28.4
2019-02-07T04:36:00.974Z,28.4
2019-02-07T04:36:52.560Z,28.1
2019-02-07T04:38:31.363Z,27.6
2019-02-07T04:39:20.404Z,27.6
2019-02-07T04:40:17.815Z,27.4
2019-02-07T04:41:01.507Z,27.2
2019-02-07T04:41:51.275Z,27.3
2019-02-07T04:42:43.993Z,27.1
2019-02-07T04:43:30.692Z,27.1
2019-02-07T04:44:21.277Z,27.1
2019-02-07T04:45:11.415Z,27.1
2019-02-07T04:46:04.413Z,27.2
2019-02-07T04:46:51.631Z,27.4
2019-02-07T04:47:41.145Z,27.6
2019-02-07T04:49:21.567Z,27.9
2019-02-07T04:50:11.641Z,28.1
2019-02-07T04:51:01.587Z,28.3
2019-02-07T04:51:53.685Z,28.3
2019-02-07T04:52:41.756Z,28.4
2019-02-07T04:53:31.810Z,28.6
2019-02-07T04:54:21.122Z,28.6
2019-02-07T04:55:14.776Z,28.7
2019-02-07T04:56:02.306Z,28.8
2019-02-07T04:56:52.602Z,28.8
2019-02-07T04:57:42.477Z,28.9
2019-02-07T04:58:32.134Z,28.8
2019-02-07T04:59:21.660Z,28.8
2019-02-07T05:00:15.574Z,28.6
2019-02-07T05:01:04.868Z,28.6
2019-02-07T05:01:52.731Z,28.4
2019-02-07T05:02:42.250Z,28.4
2019-02-07T05:03:33.486Z,28.2
2019-02-07T05:04:25.126Z,27.9
2019-02-07T05:05:12.709Z,27.7
2019-02-07T05:06:02.850Z,27.6
2019-02-07T05:06:53.429Z,27.5
2019-02-07T05:07:42.866Z,27.2
2019-02-07T05:08:33.834Z,27.3
2019-02-07T05:09:22.597Z,27.2
2019-02-07T05:10:15.810Z,27.1
2019-02-07T05:11:01.624Z,27.1
2019-02-07T05:11:51.975Z,27.1
2019-02-07T05:12:42.308Z,27.1
2019-02-07T05:13:33.793Z,27.3
2019-02-07T05:14:22.830Z,27.5
2019-02-07T05:15:13.297Z,27.7
2019-02-07T05:16:04.990Z,27.9
2019-02-07T05:16:54.205Z,28
2019-02-07T05:17:44.354Z,28.1
2019-02-07T05:18:33.906Z,28.3
2019-02-07T05:19:26.526Z,28.4
2019-02-07T05:20:13.462Z,28.5
2019-02-07T05:21:02.864Z,28.6
2019-02-07T05:21:54.066Z,28.6
2019-02-07T05:22:43.936Z,28.6
2019-02-07T05:23:33.337Z,28.5
2019-02-07T05:24:23.233Z,28.3
2019-02-07T05:25:15.186Z,28.1
2019-02-07T05:26:04.128Z,27.9
2019-02-07T05:26:54.654Z,27.9
2019-02-07T05:27:45.891Z,28.1
2019-02-07T05:28:37.292Z,27.9
2019-02-07T05:30:15.209Z,27.6
2019-02-07T05:31:04.690Z,27.4
2019-02-07T05:31:54.274Z,27.3
2019-02-07T05:32:45.785Z,27.4
2019-02-07T05:33:34.647Z,27.7
2019-02-07T05:34:27.331Z,27.9
2019-02-07T05:35:14.475Z,28.1
2019-02-07T05:36:05.102Z,28.2
2019-02-07T05:36:54.324Z,28.3
2019-02-07T05:37:50.268Z,28.4
2019-02-07T05:38:35.530Z,28.6
2019-02-07T05:39:24.342Z,28.6
2019-02-07T05:40:15.149Z,28.8
2019-02-07T05:41:05.379Z,28.8
2019-02-07T05:41:55.460Z,28.9
2019-02-07T05:42:44.985Z,28.9
2019-02-07T05:43:37.562Z,28.9
2019-02-07T05:44:25.718Z,28.8
2019-02-07T05:45:15.813Z,28.7
2019-02-07T05:46:05.734Z,28.6
2019-02-07T05:47:04.822Z,28.5
2019-02-07T05:47:45.647Z,28.4
2019-02-07T05:48:36.352Z,28.1
2019-02-07T05:49:25.168Z,27.9
2019-02-07T05:50:15.993Z,27.8
2019-02-07T05:51:06.103Z,27.6
2019-02-07T05:51:55.973Z,27.6
2019-02-07T05:52:48.419Z,27.5
2019-02-07T05:53:35.726Z,27.4
2019-02-07T05:54:26.697Z,27.4
2019-02-07T05:55:15.343Z,27.1
2019-02-07T05:56:07.866Z,27.1
2019-02-07T05:56:55.241Z,27.1
2019-02-07T05:57:46.161Z,27
2019-02-07T05:58:36.720Z,26.9
2019-02-07T05:59:26.119Z,27
2019-02-07T06:00:16.281Z,27
2019-02-07T06:01:06.508Z,27.1
2019-02-07T06:01:59.676Z,27.4
2019-02-07T06:02:47.483Z,27.6
2019-02-07T06:03:35.916Z,27.8
2019-02-07T06:06:23.305Z,28.1
2019-02-07T06:07:13.810Z,28.3
2019-02-07T06:08:05.057Z,28.3
2019-02-07T06:08:56.995Z,28.2
2019-02-07T06:09:45.442Z,28.2
2019-02-07T06:10:33.804Z,28.1
2019-02-07T06:11:25.246Z,28.1
2019-02-07T06:12:17.555Z,28
2019-02-07T06:13:05.039Z,27.9
2019-02-07T06:13:54.849Z,27.9
2019-02-07T06:14:45.899Z,27.6
2019-02-07T06:15:35.737Z,27.3
2019-02-07T06:16:24.449Z,27.1
2019-02-07T06:17:15.016Z,27
2019-02-07T06:18:06.344Z,26.9
2019-02-07T06:19:12.473Z,26.8
2019-02-07T06:19:46.108Z,26.8
2019-02-07T06:20:35.861Z,26.9
2019-02-07T06:21:28.798Z,26.8
2019-02-07T06:22:15.948Z,26.8
2019-02-07T06:23:04.895Z,26.8
2019-02-07T06:23:55.617Z,26.8
2019-02-07T06:24:45.873Z,26.9
2019-02-07T06:25:36.038Z,27.1
2019-02-07T06:26:26.399Z,27.3
2019-02-07T06:27:17.722Z,27.6
2019-02-07T06:28:06.688Z,27.7
2019-02-07T06:28:57.858Z,27.9
2019-02-07T06:29:47.053Z,28
2019-02-07T06:30:38.787Z,28.1
2019-02-07T06:31:25.215Z,28.1
2019-02-07T06:32:16.683Z,28.1
2019-02-07T06:33:06.386Z,28.1
2019-02-07T06:33:58.285Z,28.1
2019-02-07T06:34:46.712Z,28.1
2019-02-07T06:35:36.890Z,28
2019-02-07T06:36:28.615Z,27.9
2019-02-07T06:37:17.267Z,27.9
2019-02-07T06:38:06.803Z,27.8
2019-02-07T06:38:57.413Z,27.4
2019-02-07T06:39:49.801Z,27.2
2019-02-07T06:40:35.975Z,27
2019-02-07T06:41:27.340Z,26.9
2019-02-07T06:42:17.197Z,26.8
2019-02-07T06:43:07.175Z,26.7
2019-02-07T06:43:56.407Z,26.9
2019-02-07T06:44:47.300Z,27.2
2019-02-07T06:46:27.425Z,27.3
2019-02-07T06:47:23.243Z,27
2019-02-07T06:48:07.400Z,26.8
2019-02-07T06:48:59.197Z,26.8
2019-02-07T06:49:47.379Z,26.9
2019-02-07T06:50:37.767Z,27.1
2019-02-07T06:51:27.032Z,27.4
2019-02-07T06:52:17.784Z,27.6
2019-02-07T06:53:11.168Z,27.7
2019-02-07T06:53:57.389Z,27.8
2019-02-07T06:54:49.557Z,27.8
2019-02-07T06:56:28.327Z,27.9
2019-02-07T06:57:21.102Z,27.9
2019-02-07T06:58:11.459Z,27.9
2019-02-07T06:59:00.539Z,28
2019-02-07T07:01:16.472Z,28
2019-02-07T07:01:27.175Z,27.6
2019-02-07T07:02:16.995Z,27.6
2019-02-07T07:03:06.618Z,27.1
2019-02-07T07:04:02.762Z,26.9
2019-02-07T07:06:24.467Z,26.6
2019-02-07T07:07:16.302Z,26.3
2019-02-07T07:08:04.317Z,26.6
2019-02-07T07:08:54.952Z,26.8
2019-02-07T07:09:44.664Z,27.1
2019-02-07T07:10:34.209Z,26.7
2019-02-07T07:11:25.426Z,26.6
2019-02-07T07:12:14.722Z,26.5
2019-02-07T07:13:07.169Z,26.5
2019-02-07T07:13:55.112Z,26.8
2019-02-07T07:14:45.132Z,27
2019-02-07T07:15:34.419Z,27.2
2019-02-07T07:16:28.144Z,27.4
2019-02-07T07:17:27.563Z,27.6
2019-02-07T07:18:04.772Z,27.6
2019-02-07T07:18:55.189Z,27.7
2019-02-07T07:19:45.710Z,27.8
2019-02-07T07:21:24.971Z,27.9
2019-02-07T07:22:16.747Z,27.9
2019-02-07T07:23:06.341Z,27.9
2019-02-07T07:23:56.018Z,27.9
2019-02-07T07:24:45.747Z,27.9
2019-02-07T07:25:38.481Z,27.9
2019-02-07T07:26:25.596Z,27.4
2019-02-07T07:27:15.106Z,27.1
2019-02-07T07:28:05.438Z,26.8
2019-02-07T07:28:55.806Z,26.7
2019-02-07T07:29:46.388Z,26.6
2019-02-07T07:30:36.426Z,26.5
2019-02-07T07:31:26.760Z,26.4
2019-02-07T07:32:19.301Z,26.2
2019-02-07T07:33:06.256Z,26.5
2019-02-07T07:33:55.188Z,26.9
2019-02-07T07:34:47.531Z,26.6
2019-02-07T07:35:36.161Z,26.4
2019-02-07T07:36:26.099Z,26.3
2019-02-07T07:37:16.231Z,26.3
2019-02-07T07:38:07.233Z,26.4
2019-02-07T07:38:56.260Z,26.8
2019-02-07T07:39:46.040Z,27
2019-02-07T07:40:36.932Z,27.2
2019-02-07T07:41:27.007Z,27.4
2019-02-07T07:42:17.110Z,27.6
2019-02-07T07:43:05.176Z,27.6
2019-02-07T07:43:59.228Z,27.6
2019-02-07T07:44:45.632Z,27.7
2019-02-07T07:45:37.557Z,27.8
2019-02-07T07:47:16.057Z,27.9
2019-02-07T07:48:06.558Z,27.9
2019-02-07T07:48:56.877Z,27.9
2019-02-07T07:49:49.024Z,27.9
2019-02-07T07:50:37.163Z,27.9
2019-02-07T07:51:28.219Z,27.9
2019-02-07T07:52:17.438Z,27.4
2019-02-07T07:53:09.857Z,27
2019-02-07T07:53:56.850Z,26.8
2019-02-07T07:54:46.987Z,26.6
2019-02-07T07:55:35.482Z,26.4
2019-02-07T07:56:27.019Z,26.4
2019-02-07T07:57:17.496Z,26.1
2019-02-07T07:58:07.149Z,26.2
2019-02-07T07:58:59.254Z,26.6
2019-02-07T07:59:46.439Z,26.6
2019-02-07T08:00:37.646Z,26.4
2019-02-07T08:01:27.504Z,26.3
2019-02-07T08:02:20.441Z,26.3
2019-02-07T08:03:07.785Z,26.3
2019-02-07T08:03:58.259Z,26.5
2019-02-07T08:04:47.643Z,26.8
2019-02-07T08:05:38.146Z,27.1
2019-02-07T08:06:27.761Z,27.1
2019-02-07T08:07:16.871Z,26.9
2019-02-07T08:08:10.708Z,26.8
2019-02-07T08:08:58.001Z,26.6
2019-02-07T08:09:49.268Z,26.5
2019-02-07T08:10:39.438Z,26.4
2019-02-07T08:11:31.410Z,26.7
2019-02-07T08:12:17.716Z,26.9
2019-02-07T08:13:08.598Z,27.3
2019-02-07T08:13:58.419Z,27.1
2019-02-07T08:14:48.495Z,26.9
2019-02-07T08:15:38.094Z,26.7
2019-02-07T08:16:30.539Z,26.5
2019-02-07T08:17:21.651Z,26.4
2019-02-07T08:18:09.104Z,26.7
2019-02-07T08:18:58.266Z,26.9
2019-02-07T08:19:49.352Z,27.2
2019-02-07T08:20:43.687Z,27.4
2019-02-07T08:21:29.557Z,27.6
2019-02-07T08:22:19.284Z,27.6
2019-02-07T08:23:09.042Z,27.6
2019-02-07T08:24:00.276Z,27.7
2019-02-07T08:24:48.589Z,27.8
2019-02-07T08:26:31.394Z,27.9
2019-02-07T08:30:46.706Z,27.4
2019-02-07T08:31:29.640Z,27
2019-02-07T08:32:19.460Z,26.8
2019-02-07T08:33:10.585Z,26.6
2019-02-07T08:34:00.653Z,26.5
2019-02-07T08:34:49.134Z,26.4
2019-02-07T08:35:41.676Z,26.1
2019-02-07T08:36:30.073Z,26.4
2019-02-07T08:37:21.017Z,26.1
2019-02-07T08:38:10.143Z,26.2
2019-02-07T08:39:02.438Z,26.3
2019-02-07T08:39:50.351Z,26.3
2019-02-07T08:40:40.648Z,26.4
2019-02-07T08:41:31.207Z,26.6
2019-02-07T08:42:19.570Z,26.9
2019-02-07T08:43:10.738Z,27.1
2019-02-07T08:44:01.200Z,27.3
2019-02-07T08:44:55.602Z,27.5
2019-02-07T08:45:41.637Z,27.7
2019-02-07T08:46:30.999Z,27.8
2019-02-07T08:47:21.219Z,27.8
2019-02-07T08:49:04.812Z,27.9
2019-02-07T08:49:52.147Z,28
2019-02-07T08:50:41.158Z,28
2019-02-07T08:51:30.015Z,28.1
2019-02-07T08:52:21.644Z,28.1
2019-02-07T08:53:11.309Z,28.1
2019-02-07T08:54:02.561Z,28.1
2019-02-07T08:54:51.590Z,28.1
2019-02-07T08:55:44.517Z,27.6
2019-02-07T08:56:31.529Z,27.1
2019-02-07T08:57:25.169Z,26.9
2019-02-07T08:58:12.039Z,26.7
2019-02-07T08:59:01.619Z,26.6
2019-02-07T08:59:52.387Z,26.5
2019-02-07T09:00:42.004Z,26.2
2019-02-07T09:01:31.390Z,26.3
2019-02-07T09:02:21.852Z,26.8
2019-02-07T09:03:14.101Z,26.9
2019-02-07T09:04:02.369Z,26.5
2019-02-07T09:04:51.501Z,26.4
2019-02-07T09:05:42.061Z,26.3
2019-02-07T09:06:34.821Z,26.3
2019-02-07T09:07:22.021Z,26.6
2019-02-07T09:08:12.986Z,26.8
2019-02-07T09:09:03.015Z,27.1
2019-02-07T09:09:53.690Z,27.3
2019-02-07T09:10:41.841Z,27.4
2019-02-07T09:11:33.841Z,27.5
2019-02-07T09:12:24.243Z,27.6
2019-02-07T09:13:13.398Z,27.7
2019-02-07T09:14:04.533Z,27.8
2019-02-07T09:15:46.926Z,27.9
2019-02-07T09:16:33.093Z,27.9
2019-02-07T09:17:25.390Z,27.9
2019-02-07T09:18:23.030Z,27.9
2019-02-07T09:19:03.960Z,27.9
2019-02-07T09:19:53.518Z,28
2019-02-07T09:20:43.665Z,27.4
2019-02-07T09:21:35.798Z,27
2019-02-07T09:22:27.598Z,26.7
2019-02-07T09:23:14.602Z,26.6
2019-02-07T09:24:03.838Z,26.4
2019-02-07T09:24:56.907Z,26.4
2019-02-07T09:25:44.471Z,26.1
2019-02-07T09:26:34.373Z,26.3
2019-02-07T09:27:24.263Z,26.8
2019-02-07T09:28:13.639Z,26.8
2019-02-07T09:29:04.445Z,26.4
2019-02-07T09:29:53.691Z,26.3
2019-02-07T09:30:46.127Z,26.2
2019-02-07T09:31:33.925Z,26.3
2019-02-07T09:32:24.467Z,26.4
2019-02-07T09:33:14.694Z,26.7
2019-02-07T09:34:07.221Z,26.9
2019-02-07T09:34:55.204Z,27.1
2019-02-07T09:35:45.081Z,27.2
2019-02-07T09:36:34.198Z,27.3
2019-02-07T09:37:24.753Z,27.2
2019-02-07T09:38:14.924Z,27.2
2019-02-07T09:39:05.164Z,27.3
2019-02-07T09:39:56.219Z,27.3
2019-02-07T09:40:44.491Z,27.3
2019-02-07T09:41:35.058Z,27.3
2019-02-07T09:42:24.541Z,27.3
2019-02-07T09:43:18.176Z,27.2
2019-02-07T09:44:05.791Z,27.1
2019-02-07T09:44:55.734Z,27
2019-02-07T09:45:45.653Z,26.6
2019-02-07T09:46:35.141Z,26.3
2019-02-07T09:47:25.728Z,26.1
2019-02-07T09:48:26.362Z,26
2019-02-07T09:49:10.400Z,25.8
2019-02-07T09:49:55.988Z,25.8
2019-02-07T09:50:45.926Z,26.1
2019-02-07T09:51:35.927Z,26.5
2019-02-07T09:52:28.485Z,26.1
2019-02-07T09:53:27.668Z,26.1
2019-02-07T09:54:06.366Z,26
2019-02-07T09:54:56.338Z,26.1
2019-02-07T09:55:46.980Z,26.3
2019-02-07T09:56:35.845Z,26.5
2019-02-07T09:57:26.765Z,26.8
2019-02-07T09:58:19.235Z,27
2019-02-07T09:59:09.285Z,27.2
2019-02-07T09:59:56.394Z,27.4
2019-02-07T10:00:46.668Z,27.5
2019-02-07T10:01:38.980Z,27.5
2019-02-07T10:02:26.263Z,27.6
2019-02-07T10:03:16.649Z,27.6
2019-02-07T10:04:08.034Z,27.6
2019-02-07T10:04:57.127Z,27.7
2019-02-07T10:07:27.102Z,27.8
2019-02-07T10:08:13.570Z,27.8
2019-02-07T10:09:04.244Z,27.6
2019-02-07T10:09:54.344Z,27.1
2019-02-07T10:10:46.552Z,26.6
2019-02-07T10:11:34.845Z,26.4
2019-02-07T10:12:24.131Z,26.3
2019-02-07T10:13:16.109Z,26.2
2019-02-07T10:14:04.847Z,25.9
2019-02-07T10:14:54.668Z,25.9
2019-02-07T10:15:45.349Z,26.4
2019-02-07T10:16:38.879Z,26.1
2019-02-07T10:17:23.418Z,26
2019-02-07T10:18:14.999Z,26
2019-02-07T10:19:04.926Z,26.1
2019-02-07T10:19:55.871Z,26.2
2019-02-07T10:20:48.106Z,26.4
2019-02-07T10:21:34.269Z,26.7
2019-02-07T10:22:27.091Z,26.9
2019-02-07T10:23:14.705Z,27
2019-02-07T10:24:06.056Z,27.1
2019-02-07T10:24:55.597Z,27.1
2019-02-07T10:25:51.576Z,27.1
2019-02-07T10:26:35.947Z,27
2019-02-07T10:27:25.495Z,26.9
2019-02-07T10:28:16.123Z,26.9
2019-02-07T10:29:05.506Z,26.8
2019-02-07T10:29:55.060Z,26.7
2019-02-07T10:30:44.806Z,26.6
2019-02-07T10:31:37.577Z,26.6
2019-02-07T10:32:26.218Z,26.4
2019-02-07T10:33:15.978Z,26.4
2019-02-07T10:34:07.375Z,26.3
2019-02-07T10:34:58.659Z,26.3
2019-02-07T10:35:46.590Z,26.1
2019-02-07T10:36:36.623Z,26.1
2019-02-07T10:37:26.791Z,26
2019-02-07T10:38:15.995Z,25.9
2019-02-07T10:39:06.817Z,25.9
2019-02-07T10:39:57.192Z,25.8
2019-02-07T10:40:47.853Z,25.7
2019-02-07T10:41:39.977Z,25.6
2019-02-07T10:42:26.595Z,25.6
2019-02-07T10:43:16.828Z,25.5
2019-02-07T10:44:09.146Z,25.4
2019-02-07T10:44:56.479Z,25.4
2019-02-07T10:45:47.418Z,25.3
2019-02-07T10:46:37.430Z,25.3
2019-02-07T10:47:26.402Z,25.2
2019-02-07T10:48:17.841Z,25.2
2019-02-07T10:49:07.677Z,25.1
2019-02-07T10:50:09.529Z,25.1
2019-02-07T10:50:47.575Z,25
2019-02-07T10:51:36.797Z,24.9
2019-02-07T10:52:25.685Z,24.9
2019-02-07T10:53:20.437Z,24.8
2019-02-07T10:54:07.169Z,24.8
2019-02-07T10:54:57.774Z,24.8
2019-02-07T10:55:46.567Z,24.6
2019-02-07T10:56:37.574Z,24.6
2019-02-07T10:57:28.044Z,24.5
2019-02-07T10:58:17.947Z,24.4
2019-02-07T10:59:09.848Z,24.4
2019-02-07T10:59:58.059Z,24.4
2019-02-07T11:00:48.394Z,24.3
2019-02-07T11:01:38.484Z,24.3
2019-02-07T11:02:30.329Z,24.2
2019-02-07T11:03:17.448Z,24.1
2019-02-07T11:04:09.246Z,24.1
2019-02-07T11:04:58.417Z,24
2019-02-07T11:05:47.678Z,23.9
2019-02-07T11:06:38.553Z,23.9
2019-02-07T11:07:28.403Z,23.8
2019-02-07T11:08:20.106Z,23.8
2019-02-07T11:09:08.269Z,23.8
2019-02-07T11:09:58.780Z,23.7
2019-02-07T11:10:47.946Z,23.6
2019-02-07T11:11:41.856Z,23.6
2019-02-07T11:12:28.498Z,23.5
2019-02-07T11:13:19.555Z,23.4
2019-02-07T11:14:08.353Z,23.4
2019-02-07T11:14:58.085Z,23.4
2019-02-07T11:15:48.632Z,23.3
2019-02-07T11:16:38.998Z,23.3
2019-02-07T11:17:30.672Z,23.2
2019-02-07T11:18:19.361Z,23.1
2019-02-07T11:19:09.185Z,23.1
2019-02-07T11:19:58.535Z,23.1
2019-02-07T11:20:51.990Z,23
2019-02-07T11:21:39.627Z,23
2019-02-07T11:22:33.120Z,22.9
2019-02-07T11:23:18.144Z,22.9
2019-02-07T11:24:08.337Z,22.9
2019-02-07T11:25:00.302Z,22.8
2019-02-07T11:25:49.907Z,22.8
2019-02-07T11:26:39.814Z,22.8
2019-02-07T11:27:28.464Z,22.8
2019-02-07T11:28:19.924Z,22.7
2019-02-07T11:29:09.434Z,22.6
2019-02-07T11:30:01.827Z,22.6
2019-02-07T11:30:49.983Z,22.6
2019-02-07T11:31:40.189Z,22.6
2019-02-07T11:32:30.759Z,22.5
2019-02-07T11:33:21.307Z,22.4
2019-02-07T11:34:10.616Z,22.4
2019-02-07T11:35:00.620Z,22.4
2019-02-07T11:35:52.111Z,22.4